Latest Coastal Weather Observations for Robe Airport

IDV60701

Issued at 4:55 pm EST Thursday 2 October 2014 (issued every 10 minutes, with the page automatically refreshed every 10 minutes)

About coastal observations | Map of coastal stations | Coastal observations for VIC | Marine services | Other Formats
Station Details ID: 026105 Name: ROBE AIRFIELD Lat: -37.18 Lon: 139.81 Height: 3.0 m
Data from the previous 72 hours. | See also: Recent months at Robe Airport
Date/Time
EST
Temp

°C
Wind Pressure Rain
since 9am
mm
Weather Cloud Vis
km
Sea
Height
m
Swell
Dir
 
Speed
knots
Gust
knots
hPa Trend Height
m
Period
s
Dir
02/04:30pm 14.4 SSW 7 11 1025.6 - 0.0 - - - - - - -
02/04:00pm 14.3 SW 6 10 1025.8 - 0.0 - - - - - - -
02/03:30pm 14.6 SW 7 11 1025.7 - 0.0 - - - - - - -
02/03:00pm 14.8 SSW 8 11 1025.9 - 0.0 - - - - - - -
02/02:30pm 14.4 SSW 8 13 1026.1 - 0.0 - - - - - - -
02/02:00pm 14.6 SSW 8 13 1026.3 - 0.0 - - - - - - -
02/01:30pm 15.3 SW 8 12 1026.7 - 0.0 - - - - - - -
02/01:00pm 14.9 SSW 8 11 1027.0 - 0.0 - - - - - - -
02/12:30pm 15.1 SSW 9 14 1027.2 - 0.0 - - - - - - -
02/12:00pm 14.7 SSW 9 12 1027.4 - 0.0 - - - - - - -
02/11:30am 14.6 SW 7 12 1027.5 - 0.0 - - - - - - -
02/11:00am 15.2 WSW 6 12 1027.6 - 0.0 - - - - - - -
02/10:30am 14.5 SW 8 13 1027.6 - 0.0 - - - - - - -
02/10:00am 14.3 WSW 6 11 1027.6 - 0.0 - - - - - - -
02/09:30am 14.3 SW 6 9 1027.6 - 0.2 - - - - - - -
02/09:00am 14.1 WSW 7 13 1027.4 - 0.2 - - - - - - -
02/08:30am 13.8 WSW 6 9 1027.3 - 0.2 - - - - - - -
02/08:00am 13.4 WSW 5 8 1027.2 - 0.2 - - - - - - -
02/07:30am 12.9 SW 4 7 1027.1 - 0.2 - - - - - - -
02/07:00am 12.4 WSW 5 9 1026.8 - 0.2 - - - - - - -
02/06:30am 12.1 W 6 12 1026.5 - 0.2 - - - - - - -
02/06:00am 12.0 SW 8 13 1026.3 - 0.2 - - - - - - -
02/05:30am 12.3 SW 7 11 1026.2 - 0.2 - - - - - - -
02/05:00am 12.2 SW 7 11 1025.9 - 0.2 - - - - - - -
02/04:30am 12.8 SW 5 9 1026.0 - 0.2 - - - - - - -
02/04:00am 13.0 WSW 6 13 1025.9 - 0.2 - - - - - - -
02/03:30am 12.9 WSW 6 11 1025.9 - 0.2 - - - - - - -
02/03:00am 12.8 WSW 6 13 1026.1 - 0.2 - - - - - - -
02/02:30am 12.6 WSW 5 8 1026.5 - 0.2 - - - - - - -
02/02:00am 12.6 WSW 7 14 1026.8 - 0.2 - - - - - - -
02/01:30am 12.6 WSW 7 10 1027.1 - 0.2 - - - - - - -
02/01:00am 12.5 WSW 7 15 1027.3 - 0.2 - - - - - - -
02/12:30am 12.6 WSW 6 9 1027.3 - 0.2 - - - - - - -
02/12:00am 12.5 WSW 6 12 1027.4 - 0.2 - - - - - - -
 
Date/Time
EST
Temp

°C
Wind Pressure Rain
since 9am
mm
Weather Cloud Vis
km
Sea
Height
m
Swell
Dir
 
Speed
knots
Gust
knots
hPa Trend Height
m
Period
s
Dir
01/11:30pm 12.6 SW 8 13 1027.6 - 0.2 - - - - - - -
01/11:00pm 12.6 WSW 5 9 1027.6 - 0.2 - - - - - - -
01/10:30pm 12.6 SW 6 9 1027.8 - 0.2 - - - - - - -
01/10:00pm 12.6 WSW 6 10 1028.0 - 0.2 - - - - - - -
01/09:30pm 12.6 SW 6 9 1027.9 - 0.2 - - - - - - -
01/09:00pm 12.6 WSW 4 8 1028.0 - 0.2 - - - - - - -
01/08:30pm 12.7 WSW 6 13 1028.0 - 0.2 - - - - - - -
01/08:00pm 12.7 SW 5 9 1027.9 - 0.2 - - - - - - -
01/07:30pm 12.4 WSW 4 7 1027.7 - 0.2 - - - - - - -
01/07:00pm 12.2 SW 5 8 1027.5 - 0.2 - - - - - - -
01/06:30pm 12.2 WSW 3 6 1027.3 - 0.2 - - - - - - -
01/06:00pm 12.9 SW 6 10 1027.3 - 0.2 - - - - - - -
01/05:30pm 13.5 SW 7 11 1027.1 - 0.2 - - - - - - -
01/05:00pm 13.8 SW 8 12 1027.0 - 0.2 - - - - - - -
01/04:30pm 14.3 SW 6 11 1027.0 - 0.2 - - - - - - -
01/04:00pm 14.6 SW 7 12 1026.9 - 0.2 - - - - - - -
01/03:30pm 14.9 SW 7 13 1026.8 - 0.2 - - - - - - -
01/03:00pm 13.6 SSW 8 12 1027.3 - 0.2 - - - - - - -
01/02:30pm 13.5 SSW 9 12 1027.3 - 0.2 - - - - - - -
01/02:00pm 14.4 SW 9 13 1027.4 - 0.2 - - - - - - -
01/01:30pm 14.8 SW 7 12 1027.5 - 0.0 - - - - - - -
01/01:00pm 15.2 SW 7 13 1027.5 - 0.0 - - - - - - -
01/12:30pm 14.9 WSW 7 11 1027.5 - 0.0 - - - - - - -
01/12:00pm 14.8 SW 7 12 1027.6 - 0.0 - - - - - - -
01/11:30am 15.0 SSW 9 15 1027.6 - 0.0 - - - - - - -
01/11:00am 14.7 SSW 9 14 1027.7 - 0.0 - - - - - - -
01/10:30am 13.7 SSW 11 15 1027.7 - 0.0 - - - - - - -
01/10:00am 13.1 SSW 12 16 1027.7 - 0.0 - - - - - - -
01/09:30am 13.5 SSW 9 15 1027.1 - 0.4 - - - - - - -
01/09:00am 13.5 SSW 12 16 1026.7 - 0.4 - - - - - - -
01/08:30am 12.6 SSW 10 15 1026.0 - 0.4 - - - - - - -
01/08:00am 12.7 SSW 7 12 1025.5 - 0.4 - - - - - - -
01/07:30am 11.7 SSW 9 13 1025.2 - 0.4 - - - - - - -
01/07:00am 11.1 SSW 11 16 1024.8 - 0.4 - - - - - - -
01/06:30am 10.8 SSW 11 18 1024.4 - 0.4 - - - - - - -
01/06:00am 11.2 SSW 11 17 1023.8 - 0.4 - - - - - - -
01/05:30am 11.4 SSW 13 18 1023.4 - 0.4 - - - - - - -
01/05:00am 11.1 SSW 13 21 1023.0 - 0.4 - - - - - - -
01/04:30am 11.0 SW 11 17 1022.6 - 0.4 - - - - - - -
01/04:00am 10.7 SSW 12 18 1022.4 - 0.4 - - - - - - -
01/03:30am 11.0 SSW 13 20 1022.2 - 0.4 - - - - - - -
01/03:00am 11.3 SSW 12 19 1021.9 - 0.4 - - - - - - -
01/02:30am 11.3 SW 11 17 1021.5 - 0.4 - - - - - - -
01/02:00am 11.2 SW 12 16 1021.5 - 0.4 - - - - - - -
01/01:30am 11.1 SSW 12 18 1021.4 - 0.4 - - - - - - -
01/01:00am 11.8 SW 11 19 1021.2 - 0.4 - - - - - - -
01/12:30am 11.4 SSW 14 25 1021.0 - 0.4 - - - - - - -
01/12:21am 11.9 SW 15 25 1020.8 - 0.4 - - - - - - -
01/12:00am 11.7 SW 14 20 1020.6 - 0.4 - - - - - - -
 
Date/Time
EST
Temp

°C
Wind Pressure Rain
since 9am
mm
Weather Cloud Vis
km
Sea
Height
m
Swell
Dir
 
Speed
knots
Gust
knots
hPa Trend Height
m
Period
s
Dir
30/11:30pm 11.7 SW 14 21 1020.4 - 0.4 - - - - - - -
30/11:00pm 11.9 SW 13 21 1020.1 - 0.4 - - - - - - -
30/10:30pm 11.9 SW 13 21 1019.7 - 0.4 - - - - - - -
30/10:00pm 11.5 WSW 12 18 1019.4 - 0.4 - - - - - - -
30/09:30pm 11.6 WSW 13 21 1019.0 - 0.4 - - - - - - -
30/09:00pm 11.7 WSW 12 20 1018.6 - 0.4 - - - - - - -
30/08:30pm 11.5 WSW 12 20 1018.2 - 0.4 - - - - - - -
30/08:00pm 11.5 SW 15 22 1017.6 - 0.4 - - - - - - -
30/07:33pm 11.1 SW 16 28 1017.1 - 0.4 - - - - - - -
30/07:30pm 12.1 WSW 14 24 1016.9 - 0.4 - - - - - - -
30/07:00pm 12.1 WSW 11 19 1016.3 - 0.4 - - - - - - -
30/06:30pm 11.9 WSW 10 21 1016.0 - 0.4 - - - - - - -
30/06:00pm 11.9 WSW 13 24 1015.6 - 0.4 - - - - - - -
30/05:30pm 11.5 WSW 13 21 1015.2 - 0.4 - - - - - - -
30/05:00pm 12.4 SW 17 27 1014.8 - 0.4 - - - - - - -
30/04:30pm 10.8 SW 18 28 1014.3 - 0.4 - - - - - - -
30/04:20pm 12.0 SW 15 28 1013.9 - 0.4 - - - - - - -
30/04:00pm 13.4 SW 15 22 1013.4 - 0.4 - - - - - - -
30/03:30pm 14.9 WSW 17 29 1012.9 - 0.4 - - - - - - -
30/03:00pm 14.9 WSW 16 27 1012.4 - 0.4 - - - - - - -
30/02:32pm 15.2 WSW 15 25 1011.9 - 0.4 - - - - - - -
30/02:30pm 15.7 WSW 13 24 1011.9 - 0.4 - - - - - - -
30/02:00pm 14.9 WSW 19 29 1011.7 - 0.4 - - - - - - -
30/01:30pm 15.2 W 18 31 1011.0 - 0.4 - - - - - - -
30/01:01pm 14.0 W 15 26 1010.3 - 0.4 - - - - - - -
30/01:00pm 13.7 W 14 26 1010.3 - 0.4 - - - - - - -
30/12:30pm 14.2 W 15 26 1009.8 - 0.4 Recent precip. - - - - - -
30/12:18pm 14.0 W 15 27 1009.7 - 0.4 - - - - - - -
30/12:00pm 13.5 W 14 23 1009.5 - 0.4 - - - - - - -
30/11:30am 12.2 W 18 36 1009.2 - 0.0 - - - - - - -
30/11:00am 13.9 W 19 30 1008.5 - 0.0 - - - - - - -
30/10:38am 17.1 WNW 19 30 1008.1 - 0.0 - - - - - - -
30/10:30am 17.3 WNW 17 25 1008.0 - 0.0 - - - - - - -
30/10:07am 17.4 NW 20 31 1008.0 - 0.0 - - - - - - -
30/10:00am 17.0 NW 20 28 1008.0 - 0.0 - - - - - - -
30/09:30am 16.8 NW 19 27 1008.1 - 0.0 - - - - - - -
30/09:06am 16.7 NW 20 30 1008.0 - 0.0 - - - - - - -
30/09:00am 16.5 NW 19 25 1007.9 - 0.0 - - - - - - -
30/08:30am 15.6 NNW 19 27 1008.1 - 0.0 - - - - - - -
30/08:00am 15.1 NNW 19 28 1007.8 - 0.0 - - - - - - -
30/07:30am 15.2 NNW 17 25 1008.0 - 0.0 - - - - - - -
30/07:00am 14.9 NNW 17 24 1007.8 - 0.0 - - - - - - -
30/06:30am 14.8 NNW 17 25 1007.7 - 0.0 - - - - - - -
30/06:00am 14.6 NNW 15 20 1007.5 - 0.0 - - - - - - -
30/05:30am 14.6 NNW 16 24 1007.5 - 0.0 - - - - - - -
30/05:00am 14.8 NNW 14 19 1007.7 - 0.0 - - - - - - -
30/04:30am 14.8 NNW 15 20 1008.1 - 0.0 - - - - - - -
30/04:00am 14.8 NNW 14 21 1008.2 - 0.0 - - - - - - -
30/03:30am 14.8 NW 14 20 1008.8 - 0.0 - - - - - - -
30/03:00am 14.7 NW 14 20 1009.0 - 0.0 - - - - - - -
30/02:30am 14.7 NW 14 19 1009.5 - 0.0 - - - - - - -
30/02:00am 14.3 NW 13 17 1009.7 - 0.0 - - - - - - -
30/01:30am 14.4 NW 14 20 1010.2 - 0.0 - - - - - - -
30/01:00am 14.9 NW 13 18 1010.8 - 0.0 - - - - - - -
30/12:30am 14.8 NW 13 19 1011.1 - 0.0 - - - - - - -
30/12:00am 14.7 WNW 14 20 1011.4 - 0.0 - - - - - - -
 
Date/Time
EST
Temp

°C
Wind Pressure Rain
since 9am
mm
Weather Cloud Vis
km
Sea
Height
m
Swell
Dir
 
Speed
knots
Gust
knots
hPa Trend Height
m
Period
s
Dir
29/11:30pm 14.2 NW 10 15 1011.5 - 0.0 - - - - - - -
29/11:00pm 14.1 NW 10 14 1011.9 - 0.0 - - - - - - -
29/10:30pm 14.5 WNW 9 13 1012.1 - 0.0 - - - - - - -
29/10:00pm 14.6 WNW 8 13 1012.4 - 0.0 - - - - - - -
29/09:30pm 14.5 WNW 9 13 1012.4 - 0.0 - - - - - - -
29/09:00pm 13.7 NW 6 9 1012.3 - 0.0 - - - - - - -
29/08:30pm 13.5 NW 7 11 1012.4 - 0.0 - - - - - - -
29/08:00pm 13.6 NW 7 11 1012.3 - 0.0 - - - - - - -
29/07:30pm 13.7 NW 6 9 1012.1 - 0.0 - - - - - - -
29/07:00pm 13.9 NW 9 11 1012.0 - 0.0 - - - - - - -
29/06:30pm 14.1 NNW 10 14 1012.1 - 0.0 - - - - - - -
29/06:00pm 14.9 NNW 12 16 1012.0 - 0.0 - - - - - - -
29/05:30pm 15.6 NNW 11 16 1011.9 - 0.0 - - - - - - -

Other Formats:

Comma delimited format used in spreadsheet applications
http://www.bom.gov.au/fwo/IDV60701/IDV60701.95816.axf

JavaScript Object Notation format (JSON) in row-major order
http://www.bom.gov.au/fwo/IDV60701/IDV60701.95816.json